An Xiu Shan — BRQV — position and weather

sailwx.info

Track history (hours):
 
Tides and Currents Weather Stations Pressure Air Temp Water Temp Dewpoint Dewpoint Depression Visibility Wind Speed Wind Dir Waves Ship Positions

An Xiu Shan

Last reported at 2016-Jul-21 23:05 UTC. Time now 2016-Jul-23 09:13 UTC.
Position N 32°19' E 119°48'.

Length 199 m; draft 10.5 m.

Type: Cargo ship. MMSI: 413195000.

Date/timePositionNaut miles runAvg speedWind from/ knotsBaromVisibWave heightAir tempDewpointWater temp
2016-Jul-21 23:05N 32°19' E 119°48'5 7.6
2016-Jul-21 22:27N 32°16' E 119°52'8 9.2
2016-Jul-21 21:31N 32°07' E 119°55'10 8.7
2016-Jul-21 20:20N 31°59' E 120°01'8 8.8
2016-Jul-21 19:27N 31°56' E 120°10'7 6.9
2016-Jul-21 18:28N 31°57' E 120°17'6 6.2
2016-Jul-21 17:33N 32°01' E 120°23'6 6.2
2016-Jul-21 16:33N 32°02' E 120°30'7 6.8
2016-Jul-21 15:32N 31°60' E 120°38'6 5.8
2016-Jul-21 14:33N 32°01' E 120°44'7 5.9
2016-Jul-21 13:25N 31°57' E 120°52'6 7.3
2016-Jul-21 12:33N 31°52' E 120°54'6 6.1
2016-Jul-21 11:33N 31°47' E 120°58'7 6.7
2016-Jul-21 10:33N 31°45' E 121°06'7 7.4
2016-Jul-21 09:33N 31°40' E 121°12'8 8.5
2016-Jul-21 08:33N 31°34' E 121°19'7 7.1
2016-Jul-21 07:33N 31°30' E 121°26'6 6.4
2016-Jul-21 06:33N 31°25' E 121°31'1010.2
2016-Jul-21 05:33N 31°20' E 121°42'5310.7
2016-Jul-21 00:32N 31°06' E 122°42'40 3.1
2016-Jul-20 11:33N 30°26' E 122°53'10 9.4
2016-Jul-20 10:30N 30°17' E 122°51'9 9.5
2016-Jul-20 09:30N 30°07' E 122°49'11 8.9
2016-Jul-20 08:18N 29°57' E 122°50'7 8.8
2016-Jul-20 07:33N 29°50' E 122°50'33610.8
2016-Jul-19 00:27N 24°59' E 119°41'2512.1
2016-Jul-18 22:22N 24°41' E 119°21'2812.0
2016-Jul-18 20:05N 24°23' E 118°58'611.9
2016-Jul-18 19:33N 24°19' E 118°53'2211.1
2016-Jul-18 17:33N 24°05' E 118°34'1210.3
2016-Jul-18 16:25N 23°57' E 118°25'910.0
2016-Jul-18 15:33N 23°52' E 118°17'2210.8
2016-Jul-18 13:30N 23°37' E 117°59'7510.7
2016-Jul-18 06:32N 22°57' E 116°50'10 9.8
2016-Jul-18 05:32N 22°53' E 116°41'31811.2
2016-Jul-17 01:11N 20°31' E 111°35'711.5
2016-Jul-17 00:33N 20°28' E 111°28'1410.9
2016-Jul-16 23:16N 20°22' E 111°15'58 9.7
2016-Jul-16 17:19N 20°10' E 110°14'1110.8
2016-Jul-16 16:18N 20°08' E 110°03'2210.6
2016-Jul-16 14:11N 20°05' E 109°39'711.2
2016-Jul-16 13:32N 20°05' E 109°31'1110.6
2016-Jul-16 12:29N 20°03' E 109°20'  
Track history (hours):
 
Tides and Currents Weather Stations Pressure Air Temp Water Temp Dewpoint Dewpoint Depression Visibility Wind Speed Wind Dir Waves Ship Positions

An Xiu Shan

Last reported at 2016-Jul-21 23:05 UTC. Time now 2016-Jul-23 09:13 UTC.
Position N 32°19' E 119°48'.

Length 199 m; draft 10.5 m.

Type: Cargo ship. MMSI: 413195000.

Date/timePositionNaut miles runAvg speedWind from/ knotsBaromVisibWave heightAir tempDewpointWater temp
2016-Jul-21 23:05N 32°19' E 119°48'5 7.6
2016-Jul-21 22:27N 32°16' E 119°52'8 9.2
2016-Jul-21 21:31N 32°07' E 119°55'10 8.7
2016-Jul-21 20:20N 31°59' E 120°01'8 8.8
2016-Jul-21 19:27N 31°56' E 120°10'7 6.9
2016-Jul-21 18:28N 31°57' E 120°17'6 6.2
2016-Jul-21 17:33N 32°01' E 120°23'6 6.2
2016-Jul-21 16:33N 32°02' E 120°30'7 6.8
2016-Jul-21 15:32N 31°60' E 120°38'6 5.8
2016-Jul-21 14:33N 32°01' E 120°44'7 5.9
2016-Jul-21 13:25N 31°57' E 120°52'6 7.3
2016-Jul-21 12:33N 31°52' E 120°54'6 6.1
2016-Jul-21 11:33N 31°47' E 120°58'7 6.7
2016-Jul-21 10:33N 31°45' E 121°06'7 7.4
2016-Jul-21 09:33N 31°40' E 121°12'8 8.5
2016-Jul-21 08:33N 31°34' E 121°19'7 7.1
2016-Jul-21 07:33N 31°30' E 121°26'6 6.4
2016-Jul-21 06:33N 31°25' E 121°31'1010.2
2016-Jul-21 05:33N 31°20' E 121°42'5310.7
2016-Jul-21 00:32N 31°06' E 122°42'40 3.1
2016-Jul-20 11:33N 30°26' E 122°53'10 9.4
2016-Jul-20 10:30N 30°17' E 122°51'9 9.5
2016-Jul-20 09:30N 30°07' E 122°49'11 8.9
2016-Jul-20 08:18N 29°57' E 122°50'7 8.8
2016-Jul-20 07:33N 29°50' E 122°50'33610.8
2016-Jul-19 00:27N 24°59' E 119°41'2512.1
2016-Jul-18 22:22N 24°41' E 119°21'2812.0
2016-Jul-18 20:05N 24°23' E 118°58'611.9
2016-Jul-18 19:33N 24°19' E 118°53'2211.1
2016-Jul-18 17:33N 24°05' E 118°34'1210.3
2016-Jul-18 16:25N 23°57' E 118°25'910.0
2016-Jul-18 15:33N 23°52' E 118°17'2210.8
2016-Jul-18 13:30N 23°37' E 117°59'7510.7
2016-Jul-18 06:32N 22°57' E 116°50'10 9.8
2016-Jul-18 05:32N 22°53' E 116°41'31811.2
2016-Jul-17 01:11N 20°31' E 111°35'711.5
2016-Jul-17 00:33N 20°28' E 111°28'1410.9
2016-Jul-16 23:16N 20°22' E 111°15'58 9.7
2016-Jul-16 17:19N 20°10' E 110°14'1110.8
2016-Jul-16 16:18N 20°08' E 110°03'2210.6
2016-Jul-16 14:11N 20°05' E 109°39'711.2
2016-Jul-16 13:32N 20°05' E 109°31'1110.6
2016-Jul-16 12:29N 20°03' E 109°20'  

Dump ship's entire track history